sensor_id;sensor_type;location;lat;lon;timestamp;P1;durP1;ratioP1;P2;durP2;ratioP2
3997;SDS011;61314;53.444;9.902;2023-08-24T00:01:14;5.80;;;3.63;;
3997;SDS011;61314;53.444;9.902;2023-08-24T00:03:45;4.13;;;3.57;;
3997;SDS011;61314;53.444;9.902;2023-08-24T00:06:12;4.07;;;3.73;;
3997;SDS011;61314;53.444;9.902;2023-08-24T00:08:39;5.67;;;3.50;;
3997;SDS011;61314;53.444;9.902;2023-08-24T00:11:06;4.60;;;3.20;;
3997;SDS011;61314;53.444;9.902;2023-08-24T00:13:34;5.23;;;3.90;;
3997;SDS011;61314;53.444;9.902;2023-08-24T00:16:01;4.90;;;3.50;;
3997;SDS011;61314;53.444;9.902;2023-08-24T00:18:28;7.47;;;4.43;;
3997;SDS011;61314;53.444;9.902;2023-08-24T00:20:55;9.40;;;4.00;;
3997;SDS011;61314;53.444;9.902;2023-08-24T00:23:22;4.47;;;3.90;;
3997;SDS011;61314;53.444;9.902;2023-08-24T00:25:49;4.73;;;3.60;;
3997;SDS011;61314;53.444;9.902;2023-08-24T00:28:16;6.23;;;3.70;;
3997;SDS011;61314;53.444;9.902;2023-08-24T00:30:43;7.43;;;3.83;;
3997;SDS011;61314;53.444;9.902;2023-08-24T00:33:10;6.90;;;3.10;;
3997;SDS011;61314;53.444;9.902;2023-08-24T00:35:37;7.10;;;3.00;;
3997;SDS011;61314;53.444;9.902;2023-08-24T00:38:04;6.87;;;3.77;;
3997;SDS011;61314;53.444;9.902;2023-08-24T00:40:31;8.50;;;4.37;;
3997;SDS011;61314;53.444;9.902;2023-08-24T00:42:58;5.80;;;3.73;;
3997;SDS011;61314;53.444;9.902;2023-08-24T00:45:26;3.60;;;3.30;;
3997;SDS011;61314;53.444;9.902;2023-08-24T00:47:53;4.77;;;3.23;;
3997;SDS011;61314;53.444;9.902;2023-08-24T00:50:20;6.27;;;4.07;;
3997;SDS011;61314;53.444;9.902;2023-08-24T00:52:48;4.33;;;3.30;;
3997;SDS011;61314;53.444;9.902;2023-08-24T00:55:15;6.03;;;3.90;;
3997;SDS011;61314;53.444;9.902;2023-08-24T00:57:43;7.83;;;3.80;;
3997;SDS011;61314;53.444;9.902;2023-08-24T01:00:11;5.87;;;3.50;;
3997;SDS011;61314;53.444;9.902;2023-08-24T01:02:39;7.90;;;3.73;;
3997;SDS011;61314;53.444;9.902;2023-08-24T01:05:07;7.50;;;3.70;;
3997;SDS011;61314;53.444;9.902;2023-08-24T01:07:34;6.07;;;3.90;;
3997;SDS011;61314;53.444;9.902;2023-08-24T01:10:02;4.70;;;3.83;;
3997;SDS011;61314;53.444;9.902;2023-08-24T01:15:18;4.27;;;3.87;;
3997;SDS011;61314;53.444;9.902;2023-08-24T01:17:46;4.80;;;4.20;;
3997;SDS011;61314;53.444;9.902;2023-08-24T01:20:14;4.53;;;4.13;;
3997;SDS011;61314;53.444;9.902;2023-08-24T01:25:20;4.80;;;3.43;;
3997;SDS011;61314;53.444;9.902;2023-08-24T01:27:50;8.87;;;4.90;;
3997;SDS011;61314;53.444;9.902;2023-08-24T01:30:18;5.63;;;4.07;;
3997;SDS011;61314;53.444;9.902;2023-08-24T01:32:46;8.90;;;4.50;;
3997;SDS011;61314;53.444;9.902;2023-08-24T01:35:13;5.70;;;4.17;;
3997;SDS011;61314;53.444;9.902;2023-08-24T01:37:40;7.83;;;4.00;;
3997;SDS011;61314;53.444;9.902;2023-08-24T01:42:46;5.17;;;4.20;;
3997;SDS011;61314;53.444;9.902;2023-08-24T01:45:15;5.40;;;4.33;;
3997;SDS011;61314;53.444;9.902;2023-08-24T01:47:45;9.50;;;4.90;;
3997;SDS011;61314;53.444;9.902;2023-08-24T01:50:12;5.90;;;5.17;;
3997;SDS011;61314;53.444;9.902;2023-08-24T01:52:40;7.03;;;3.97;;
3997;SDS011;61314;53.444;9.902;2023-08-24T01:55:07;7.03;;;3.87;;
3997;SDS011;61314;53.444;9.902;2023-08-24T01:57:34;8.40;;;4.57;;
3997;SDS011;61314;53.444;9.902;2023-08-24T02:00:02;3.67;;;3.37;;
3997;SDS011;61314;53.444;9.902;2023-08-24T02:02:34;7.90;;;4.03;;
3997;SDS011;61314;53.444;9.902;2023-08-24T02:05:04;6.43;;;5.30;;
3997;SDS011;61314;53.444;9.902;2023-08-24T02:07:31;5.40;;;4.90;;
3997;SDS011;61314;53.444;9.902;2023-08-24T02:09:58;5.73;;;4.30;;
3997;SDS011;61314;53.444;9.902;2023-08-24T02:12:25;6.70;;;4.83;;
3997;SDS011;61314;53.444;9.902;2023-08-24T02:14:52;6.40;;;4.70;;
3997;SDS011;61314;53.444;9.902;2023-08-24T02:17:19;5.07;;;4.13;;
3997;SDS011;61314;53.444;9.902;2023-08-24T02:19:46;7.43;;;4.73;;
3997;SDS011;61314;53.444;9.902;2023-08-24T02:22:13;9.70;;;4.40;;
3997;SDS011;61314;53.444;9.902;2023-08-24T02:24:40;7.73;;;4.90;;
3997;SDS011;61314;53.444;9.902;2023-08-24T02:27:07;6.87;;;4.30;;
3997;SDS011;61314;53.444;9.902;2023-08-24T02:29:34;7.10;;;3.70;;
3997;SDS011;61314;53.444;9.902;2023-08-24T02:32:03;5.60;;;5.00;;
3997;SDS011;61314;53.444;9.902;2023-08-24T02:34:30;5.80;;;4.57;;
3997;SDS011;61314;53.444;9.902;2023-08-24T02:36:57;5.20;;;4.70;;
3997;SDS011;61314;53.444;9.902;2023-08-24T02:39:24;5.80;;;5.00;;
3997;SDS011;61314;53.444;9.902;2023-08-24T02:41:51;5.83;;;5.23;;
3997;SDS011;61314;53.444;9.902;2023-08-24T02:44:18;4.97;;;4.47;;
3997;SDS011;61314;53.444;9.902;2023-08-24T02:46:47;4.93;;;3.77;;
3997;SDS011;61314;53.444;9.902;2023-08-24T02:49:14;6.53;;;4.47;;
3997;SDS011;61314;53.444;9.902;2023-08-24T02:51:41;6.30;;;4.40;;
3997;SDS011;61314;53.444;9.902;2023-08-24T02:54:08;7.33;;;4.87;;
3997;SDS011;61314;53.444;9.902;2023-08-24T02:56:35;4.93;;;4.10;;
3997;SDS011;61314;53.444;9.902;2023-08-24T02:59:02;7.33;;;4.57;;
3997;SDS011;61314;53.444;9.902;2023-08-24T03:01:29;4.30;;;3.90;;
3997;SDS011;61314;53.444;9.902;2023-08-24T03:03:56;8.67;;;4.47;;
3997;SDS011;61314;53.444;9.902;2023-08-24T03:06:24;6.60;;;4.87;;
3997;SDS011;61314;53.444;9.902;2023-08-24T03:08:51;8.23;;;3.40;;
3997;SDS011;61314;53.444;9.902;2023-08-24T03:11:18;5.37;;;3.90;;
3997;SDS011;61314;53.444;9.902;2023-08-24T03:13:45;6.50;;;4.50;;
3997;SDS011;61314;53.444;9.902;2023-08-24T03:16:12;7.97;;;4.23;;
3997;SDS011;61314;53.444;9.902;2023-08-24T03:18:39;7.40;;;4.93;;
3997;SDS011;61314;53.444;9.902;2023-08-24T03:21:06;4.30;;;3.97;;
3997;SDS011;61314;53.444;9.902;2023-08-24T03:23:33;6.10;;;3.80;;
3997;SDS011;61314;53.444;9.902;2023-08-24T03:26:00;7.70;;;3.70;;
3997;SDS011;61314;53.444;9.902;2023-08-24T03:28:27;4.43;;;3.50;;
3997;SDS011;61314;53.444;9.902;2023-08-24T03:30:55;6.43;;;3.97;;
3997;SDS011;61314;53.444;9.902;2023-08-24T03:33:22;4.57;;;4.10;;
3997;SDS011;61314;53.444;9.902;2023-08-24T03:35:49;10.03;;;4.30;;
3997;SDS011;61314;53.444;9.902;2023-08-24T03:38:16;7.20;;;4.33;;
3997;SDS011;61314;53.444;9.902;2023-08-24T03:40:43;6.10;;;5.33;;
3997;SDS011;61314;53.444;9.902;2023-08-24T03:43:10;4.53;;;4.10;;
3997;SDS011;61314;53.444;9.902;2023-08-24T03:45:38;4.73;;;4.33;;
3997;SDS011;61314;53.444;9.902;2023-08-24T03:48:05;8.33;;;5.23;;
3997;SDS011;61314;53.444;9.902;2023-08-24T03:50:32;6.60;;;4.23;;
3997;SDS011;61314;53.444;9.902;2023-08-24T03:53:00;4.50;;;4.10;;
3997;SDS011;61314;53.444;9.902;2023-08-24T03:55:27;5.43;;;4.77;;
3997;SDS011;61314;53.444;9.902;2023-08-24T03:57:54;6.30;;;4.50;;
3997;SDS011;61314;53.444;9.902;2023-08-24T04:00:21;6.07;;;4.00;;
3997;SDS011;61314;53.444;9.902;2023-08-24T04:02:48;5.43;;;4.90;;
3997;SDS011;61314;53.444;9.902;2023-08-24T04:05:15;6.30;;;5.77;;
3997;SDS011;61314;53.444;9.902;2023-08-24T04:07:42;9.53;;;5.13;;
3997;SDS011;61314;53.444;9.902;2023-08-24T04:10:09;4.47;;;4.07;;
3997;SDS011;61314;53.444;9.902;2023-08-24T04:12:36;7.53;;;4.50;;
3997;SDS011;61314;53.444;9.902;2023-08-24T04:15:03;6.10;;;5.27;;
3997;SDS011;61314;53.444;9.902;2023-08-24T04:17:31;5.93;;;4.80;;
3997;SDS011;61314;53.444;9.902;2023-08-24T04:19:58;12.10;;;5.60;;
3997;SDS011;61314;53.444;9.902;2023-08-24T04:22:25;4.60;;;4.30;;
3997;SDS011;61314;53.444;9.902;2023-08-24T04:24:52;6.07;;;4.30;;
3997;SDS011;61314;53.444;9.902;2023-08-24T04:27:19;5.10;;;4.20;;
3997;SDS011;61314;53.444;9.902;2023-08-24T04:29:48;5.70;;;4.77;;
3997;SDS011;61314;53.444;9.902;2023-08-24T04:32:15;8.77;;;5.97;;
3997;SDS011;61314;53.444;9.902;2023-08-24T04:34:42;6.03;;;5.40;;
3997;SDS011;61314;53.444;9.902;2023-08-24T04:37:09;7.63;;;5.87;;
3997;SDS011;61314;53.444;9.902;2023-08-24T04:39:36;10.60;;;7.97;;
3997;SDS011;61314;53.444;9.902;2023-08-24T04:42:03;7.80;;;5.63;;
3997;SDS011;61314;53.444;9.902;2023-08-24T04:44:31;8.03;;;6.57;;
3997;SDS011;61314;53.444;9.902;2023-08-24T04:46:58;8.80;;;6.40;;
3997;SDS011;61314;53.444;9.902;2023-08-24T04:49:25;9.30;;;5.33;;
3997;SDS011;61314;53.444;9.902;2023-08-24T04:51:52;8.83;;;6.30;;
3997;SDS011;61314;53.444;9.902;2023-08-24T04:54:19;11.60;;;8.17;;
3997;SDS011;61314;53.444;9.902;2023-08-24T04:56:47;9.27;;;6.10;;
3997;SDS011;61314;53.444;9.902;2023-08-24T04:59:14;9.23;;;7.20;;
3997;SDS011;61314;53.444;9.902;2023-08-24T05:01:41;11.53;;;8.37;;
3997;SDS011;61314;53.444;9.902;2023-08-24T05:04:08;7.33;;;6.47;;
3997;SDS011;61314;53.444;9.902;2023-08-24T05:06:36;11.90;;;8.93;;
3997;SDS011;61314;53.444;9.902;2023-08-24T05:09:03;11.90;;;8.70;;
3997;SDS011;61314;53.444;9.902;2023-08-24T05:11:30;11.10;;;8.80;;
3997;SDS011;61314;53.444;9.902;2023-08-24T05:13:57;13.07;;;8.73;;
3997;SDS011;61314;53.444;9.902;2023-08-24T05:16:24;10.33;;;7.40;;
3997;SDS011;61314;53.444;9.902;2023-08-24T05:18:51;7.87;;;7.07;;
3997;SDS011;61314;53.444;9.902;2023-08-24T05:21:18;7.67;;;7.00;;
3997;SDS011;61314;53.444;9.902;2023-08-24T05:23:45;10.30;;;7.83;;
3997;SDS011;61314;53.444;9.902;2023-08-24T05:26:12;8.90;;;6.60;;
3997;SDS011;61314;53.444;9.902;2023-08-24T05:28:39;9.93;;;8.20;;
3997;SDS011;61314;53.444;9.902;2023-08-24T05:31:07;7.80;;;7.07;;
3997;SDS011;61314;53.444;9.902;2023-08-24T05:33:34;10.20;;;7.00;;
3997;SDS011;61314;53.444;9.902;2023-08-24T05:36:01;12.53;;;7.47;;
3997;SDS011;61314;53.444;9.902;2023-08-24T05:38:28;11.90;;;7.67;;
3997;SDS011;61314;53.444;9.902;2023-08-24T05:40:55;7.60;;;6.93;;
3997;SDS011;61314;53.444;9.902;2023-08-24T05:43:22;7.87;;;7.07;;
3997;SDS011;61314;53.444;9.902;2023-08-24T05:45:49;10.30;;;6.03;;
3997;SDS011;61314;53.444;9.902;2023-08-24T05:48:16;8.43;;;7.63;;
3997;SDS011;61314;53.444;9.902;2023-08-24T05:50:44;8.83;;;7.93;;
3997;SDS011;61314;53.444;9.902;2023-08-24T05:53:11;10.30;;;7.87;;
3997;SDS011;61314;53.444;9.902;2023-08-24T05:55:39;9.87;;;8.20;;
3997;SDS011;61314;53.444;9.902;2023-08-24T05:58:06;9.67;;;7.47;;
3997;SDS011;61314;53.444;9.902;2023-08-24T06:00:33;15.50;;;7.47;;
3997;SDS011;61314;53.444;9.902;2023-08-24T06:03:01;7.47;;;5.73;;
3997;SDS011;61314;53.444;9.902;2023-08-24T06:05:29;6.77;;;6.17;;
3997;SDS011;61314;53.444;9.902;2023-08-24T06:07:57;8.73;;;7.00;;
3997;SDS011;61314;53.444;9.902;2023-08-24T06:10:24;12.47;;;8.00;;
3997;SDS011;61314;53.444;9.902;2023-08-24T06:12:53;7.83;;;7.00;;
3997;SDS011;61314;53.444;9.902;2023-08-24T06:15:21;7.60;;;6.90;;
3997;SDS011;61314;53.444;9.902;2023-08-24T06:17:52;9.30;;;6.73;;
3997;SDS011;61314;53.444;9.902;2023-08-24T06:20:19;9.83;;;6.47;;
3997;SDS011;61314;53.444;9.902;2023-08-24T06:22:47;10.30;;;6.40;;
3997;SDS011;61314;53.444;9.902;2023-08-24T06:25:14;10.13;;;6.37;;
3997;SDS011;61314;53.444;9.902;2023-08-24T06:27:41;12.53;;;6.17;;
3997;SDS011;61314;53.444;9.902;2023-08-24T06:30:08;5.80;;;5.30;;
3997;SDS011;61314;53.444;9.902;2023-08-24T06:32:35;8.97;;;5.60;;
3997;SDS011;61314;53.444;9.902;2023-08-24T06:35:03;9.40;;;5.50;;
3997;SDS011;61314;53.444;9.902;2023-08-24T06:37:31;6.80;;;5.03;;
3997;SDS011;61314;53.444;9.902;2023-08-24T06:39:58;11.90;;;6.70;;
3997;SDS011;61314;53.444;9.902;2023-08-24T06:42:25;17.17;;;5.53;;
3997;SDS011;61314;53.444;9.902;2023-08-24T06:44:52;13.03;;;6.47;;
3997;SDS011;61314;53.444;9.902;2023-08-24T06:47:19;8.63;;;5.90;;
3997;SDS011;61314;53.444;9.902;2023-08-24T06:49:46;9.90;;;6.57;;
3997;SDS011;61314;53.444;9.902;2023-08-24T06:52:14;6.60;;;5.70;;
3997;SDS011;61314;53.444;9.902;2023-08-24T06:54:41;13.17;;;6.50;;
3997;SDS011;61314;53.444;9.902;2023-08-24T06:57:08;6.47;;;5.60;;
3997;SDS011;61314;53.444;9.902;2023-08-24T06:59:35;6.53;;;4.80;;
3997;SDS011;61314;53.444;9.902;2023-08-24T07:02:02;7.57;;;4.53;;
3997;SDS011;61314;53.444;9.902;2023-08-24T07:04:30;9.10;;;5.20;;
3997;SDS011;61314;53.444;9.902;2023-08-24T07:06:57;5.43;;;4.90;;
3997;SDS011;61314;53.444;9.902;2023-08-24T07:09:25;9.23;;;6.23;;
3997;SDS011;61314;53.444;9.902;2023-08-24T07:11:53;6.00;;;5.57;;
3997;SDS011;61314;53.444;9.902;2023-08-24T07:14:21;12.83;;;5.93;;
3997;SDS011;61314;53.444;9.902;2023-08-24T07:16:48;8.97;;;5.30;;
3997;SDS011;61314;53.444;9.902;2023-08-24T07:19:15;6.80;;;5.30;;
3997;SDS011;61314;53.444;9.902;2023-08-24T07:21:43;4.97;;;4.40;;
3997;SDS011;61314;53.444;9.902;2023-08-24T07:24:10;5.90;;;4.00;;
3997;SDS011;61314;53.444;9.902;2023-08-24T07:26:37;9.50;;;4.50;;
3997;SDS011;61314;53.444;9.902;2023-08-24T07:29:04;7.77;;;4.30;;
3997;SDS011;61314;53.444;9.902;2023-08-24T07:31:31;6.40;;;5.07;;
3997;SDS011;61314;53.444;9.902;2023-08-24T07:34:01;6.93;;;5.10;;
3997;SDS011;61314;53.444;9.902;2023-08-24T07:36:28;11.03;;;5.20;;
3997;SDS011;61314;53.444;9.902;2023-08-24T07:38:55;8.90;;;4.60;;
3997;SDS011;61314;53.444;9.902;2023-08-24T07:41:22;4.60;;;4.23;;
3997;SDS011;61314;53.444;9.902;2023-08-24T07:43:49;9.70;;;4.23;;
3997;SDS011;61314;53.444;9.902;2023-08-24T07:46:16;7.83;;;4.93;;
3997;SDS011;61314;53.444;9.902;2023-08-24T07:48:43;4.73;;;4.17;;
3997;SDS011;61314;53.444;9.902;2023-08-24T07:51:10;8.77;;;4.03;;
3997;SDS011;61314;53.444;9.902;2023-08-24T07:53:37;7.20;;;4.30;;
3997;SDS011;61314;53.444;9.902;2023-08-24T07:56:05;5.60;;;4.30;;
3997;SDS011;61314;53.444;9.902;2023-08-24T07:58:32;6.03;;;3.83;;
3997;SDS011;61314;53.444;9.902;2023-08-24T08:00:59;4.60;;;3.10;;
3997;SDS011;61314;53.444;9.902;2023-08-24T08:03:26;4.80;;;3.67;;
3997;SDS011;61314;53.444;9.902;2023-08-24T08:05:54;8.27;;;3.77;;
3997;SDS011;61314;53.444;9.902;2023-08-24T08:08:22;4.77;;;3.60;;
3997;SDS011;61314;53.444;9.902;2023-08-24T08:10:55;4.40;;;3.40;;
3997;SDS011;61314;53.444;9.902;2023-08-24T08:13:23;7.70;;;4.10;;
3997;SDS011;61314;53.444;9.902;2023-08-24T08:15:51;13.67;;;3.57;;
3997;SDS011;61314;53.444;9.902;2023-08-24T08:18:18;5.50;;;3.40;;
3997;SDS011;61314;53.444;9.902;2023-08-24T08:20:45;5.30;;;3.33;;
3997;SDS011;61314;53.444;9.902;2023-08-24T08:23:12;7.47;;;3.77;;
3997;SDS011;61314;53.444;9.902;2023-08-24T08:25:39;4.10;;;3.00;;
3997;SDS011;61314;53.444;9.902;2023-08-24T08:28:08;6.40;;;3.10;;
3997;SDS011;61314;53.444;9.902;2023-08-24T08:30:35;4.67;;;3.50;;
3997;SDS011;61314;53.444;9.902;2023-08-24T08:33:02;18.37;;;3.70;;
3997;SDS011;61314;53.444;9.902;2023-08-24T08:35:30;5.50;;;3.43;;
3997;SDS011;61314;53.444;9.902;2023-08-24T08:37:57;5.70;;;2.53;;
3997;SDS011;61314;53.444;9.902;2023-08-24T08:40:24;4.23;;;2.47;;
3997;SDS011;61314;53.444;9.902;2023-08-24T08:42:59;4.33;;;3.40;;
3997;SDS011;61314;53.444;9.902;2023-08-24T08:45:26;4.80;;;2.93;;
3997;SDS011;61314;53.444;9.902;2023-08-24T08:47:57;3.17;;;2.83;;
3997;SDS011;61314;53.444;9.902;2023-08-24T08:50:25;5.33;;;2.80;;
3997;SDS011;61314;53.444;9.902;2023-08-24T08:52:56;3.23;;;2.47;;
3997;SDS011;61314;53.444;9.902;2023-08-24T08:55:24;3.33;;;2.30;;
3997;SDS011;61314;53.444;9.902;2023-08-24T08:57:53;3.70;;;2.17;;
3997;SDS011;61314;53.444;9.902;2023-08-24T09:00:24;4.23;;;2.90;;
3997;SDS011;61314;53.444;9.902;2023-08-24T09:02:52;3.87;;;2.10;;
3997;SDS011;61314;53.444;9.902;2023-08-24T09:05:20;6.40;;;2.90;;
3997;SDS011;61314;53.444;9.902;2023-08-24T09:07:47;6.00;;;2.63;;
3997;SDS011;61314;53.444;9.902;2023-08-24T09:10:15;6.10;;;3.10;;
3997;SDS011;61314;53.444;9.902;2023-08-24T09:12:42;10.60;;;3.20;;
3997;SDS011;61314;53.444;9.902;2023-08-24T09:15:10;4.17;;;2.27;;
3997;SDS011;61314;53.444;9.902;2023-08-24T09:17:39;8.50;;;3.23;;
3997;SDS011;61314;53.444;9.902;2023-08-24T09:20:09;8.20;;;2.50;;
3997;SDS011;61314;53.444;9.902;2023-08-24T09:22:36;4.93;;;2.70;;
3997;SDS011;61314;53.444;9.902;2023-08-24T09:25:05;2.80;;;2.60;;
3997;SDS011;61314;53.444;9.902;2023-08-24T09:27:32;4.03;;;2.70;;
3997;SDS011;61314;53.444;9.902;2023-08-24T09:30:01;6.53;;;3.30;;
3997;SDS011;61314;53.444;9.902;2023-08-24T09:32:29;4.63;;;2.57;;
3997;SDS011;61314;53.444;9.902;2023-08-24T09:35:01;5.87;;;3.13;;
3997;SDS011;61314;53.444;9.902;2023-08-24T09:37:35;4.70;;;3.13;;
3997;SDS011;61314;53.444;9.902;2023-08-24T09:40:03;8.37;;;3.40;;
3997;SDS011;61314;53.444;9.902;2023-08-24T09:42:38;6.43;;;3.97;;
3997;SDS011;61314;53.444;9.902;2023-08-24T09:45:06;7.37;;;3.97;;
3997;SDS011;61314;53.444;9.902;2023-08-24T09:47:36;10.10;;;4.27;;
3997;SDS011;61314;53.444;9.902;2023-08-24T09:50:04;7.00;;;3.50;;
3997;SDS011;61314;53.444;9.902;2023-08-24T09:52:32;6.10;;;2.97;;
3997;SDS011;61314;53.444;9.902;2023-08-24T09:55:02;4.63;;;3.50;;
3997;SDS011;61314;53.444;9.902;2023-08-24T09:57:36;11.00;;;3.40;;
3997;SDS011;61314;53.444;9.902;2023-08-24T10:00:05;6.23;;;3.60;;
3997;SDS011;61314;53.444;9.902;2023-08-24T10:02:37;3.73;;;2.47;;
3997;SDS011;61314;53.444;9.902;2023-08-24T10:05:07;4.80;;;3.50;;
3997;SDS011;61314;53.444;9.902;2023-08-24T10:07:52;5.30;;;3.00;;
3997;SDS011;61314;53.444;9.902;2023-08-24T10:10:20;10.77;;;3.97;;
3997;SDS011;61314;53.444;9.902;2023-08-24T10:12:50;5.90;;;3.40;;
3997;SDS011;61314;53.444;9.902;2023-08-24T10:15:18;5.43;;;3.20;;
3997;SDS011;61314;53.444;9.902;2023-08-24T10:17:45;4.07;;;3.63;;
3997;SDS011;61314;53.444;9.902;2023-08-24T10:20:12;3.67;;;3.37;;
3997;SDS011;61314;53.444;9.902;2023-08-24T10:22:41;3.13;;;2.83;;
3997;SDS011;61314;53.444;9.902;2023-08-24T10:25:08;8.63;;;2.70;;
3997;SDS011;61314;53.444;9.902;2023-08-24T10:27:35;11.50;;;4.10;;
3997;SDS011;61314;53.444;9.902;2023-08-24T10:30:02;4.73;;;2.80;;
3997;SDS011;61314;53.444;9.902;2023-08-24T10:32:29;9.47;;;3.90;;
3997;SDS011;61314;53.444;9.902;2023-08-24T10:34:57;3.43;;;3.03;;
3997;SDS011;61314;53.444;9.902;2023-08-24T10:37:25;10.47;;;3.50;;
3997;SDS011;61314;53.444;9.902;2023-08-24T10:39:53;7.73;;;3.60;;
3997;SDS011;61314;53.444;9.902;2023-08-24T10:42:20;6.60;;;4.03;;
3997;SDS011;61314;53.444;9.902;2023-08-24T10:44:47;5.77;;;3.23;;
3997;SDS011;61314;53.444;9.902;2023-08-24T10:47:20;8.43;;;3.47;;
3997;SDS011;61314;53.444;9.902;2023-08-24T10:52:37;3.80;;;3.03;;
3997;SDS011;61314;53.444;9.902;2023-08-24T10:55:20;6.60;;;2.87;;
3997;SDS011;61314;53.444;9.902;2023-08-24T10:57:55;3.40;;;3.10;;
3997;SDS011;61314;53.444;9.902;2023-08-24T11:00:26;4.57;;;3.13;;
3997;SDS011;61314;53.444;9.902;2023-08-24T11:02:54;6.10;;;3.17;;
3997;SDS011;61314;53.444;9.902;2023-08-24T11:05:29;3.33;;;2.60;;
3997;SDS011;61314;53.444;9.902;2023-08-24T11:07:58;3.63;;;2.40;;
3997;SDS011;61314;53.444;9.902;2023-08-24T11:10:33;2.80;;;2.53;;
3997;SDS011;61314;53.444;9.902;2023-08-24T11:15:33;5.33;;;2.83;;
3997;SDS011;61314;53.444;9.902;2023-08-24T11:18:11;6.30;;;2.67;;
3997;SDS011;61314;53.444;9.902;2023-08-24T11:20:45;6.00;;;2.70;;
3997;SDS011;61314;53.444;9.902;2023-08-24T11:23:12;5.90;;;3.20;;
3997;SDS011;61314;53.444;9.902;2023-08-24T11:25:39;4.97;;;2.73;;
3997;SDS011;61314;53.444;9.902;2023-08-24T11:28:06;5.20;;;3.13;;
3997;SDS011;61314;53.444;9.902;2023-08-24T11:30:34;4.80;;;2.83;;
3997;SDS011;61314;53.444;9.902;2023-08-24T11:33:01;4.50;;;2.77;;
3997;SDS011;61314;53.444;9.902;2023-08-24T11:35:29;4.30;;;3.07;;
3997;SDS011;61314;53.444;9.902;2023-08-24T11:38:02;4.53;;;2.57;;
3997;SDS011;61314;53.444;9.902;2023-08-24T11:40:30;4.23;;;2.83;;
3997;SDS011;61314;53.444;9.902;2023-08-24T11:42:57;4.10;;;2.50;;
3997;SDS011;61314;53.444;9.902;2023-08-24T11:45:24;3.13;;;2.83;;
3997;SDS011;61314;53.444;9.902;2023-08-24T11:47:57;4.73;;;2.40;;
3997;SDS011;61314;53.444;9.902;2023-08-24T11:50:25;3.50;;;2.60;;
3997;SDS011;61314;53.444;9.902;2023-08-24T11:52:52;3.73;;;2.70;;
3997;SDS011;61314;53.444;9.902;2023-08-24T11:55:23;7.27;;;3.13;;
3997;SDS011;61314;53.444;9.902;2023-08-24T11:57:50;6.93;;;2.80;;
3997;SDS011;61314;53.444;9.902;2023-08-24T12:00:19;2.67;;;2.47;;
3997;SDS011;61314;53.444;9.902;2023-08-24T12:02:47;5.00;;;2.83;;
3997;SDS011;61314;53.444;9.902;2023-08-24T12:05:24;3.30;;;2.60;;
3997;SDS011;61314;53.444;9.902;2023-08-24T12:07:52;8.70;;;3.20;;
3997;SDS011;61314;53.444;9.902;2023-08-24T12:10:20;4.80;;;2.93;;
3997;SDS011;61314;53.444;9.902;2023-08-24T12:12:48;4.00;;;2.43;;
3997;SDS011;61314;53.444;9.902;2023-08-24T12:15:18;7.83;;;2.73;;
3997;SDS011;61314;53.444;9.902;2023-08-24T12:17:48;4.33;;;2.40;;
3997;SDS011;61314;53.444;9.902;2023-08-24T12:20:19;4.20;;;2.33;;
3997;SDS011;61314;53.444;9.902;2023-08-24T12:22:51;10.50;;;2.63;;
3997;SDS011;61314;53.444;9.902;2023-08-24T12:25:21;4.00;;;2.70;;
3997;SDS011;61314;53.444;9.902;2023-08-24T12:27:52;3.20;;;2.47;;
3997;SDS011;61314;53.444;9.902;2023-08-24T12:30:20;9.17;;;2.70;;
3997;SDS011;61314;53.444;9.902;2023-08-24T12:32:47;5.77;;;2.57;;
3997;SDS011;61314;53.444;9.902;2023-08-24T12:35:17;3.53;;;3.10;;
3997;SDS011;61314;53.444;9.902;2023-08-24T12:37:44;2.60;;;2.40;;
3997;SDS011;61314;53.444;9.902;2023-08-24T12:40:12;8.77;;;2.97;;
3997;SDS011;61314;53.444;9.902;2023-08-24T12:42:39;7.10;;;2.50;;
3997;SDS011;61314;53.444;9.902;2023-08-24T12:45:06;3.30;;;2.53;;
3997;SDS011;61314;53.444;9.902;2023-08-24T12:47:34;7.17;;;2.90;;
3997;SDS011;61314;53.444;9.902;2023-08-24T12:50:04;2.50;;;2.30;;
3997;SDS011;61314;53.444;9.902;2023-08-24T12:52:31;6.27;;;2.70;;
3997;SDS011;61314;53.444;9.902;2023-08-24T12:54:58;3.40;;;2.40;;
3997;SDS011;61314;53.444;9.902;2023-08-24T12:57:26;3.27;;;2.63;;
3997;SDS011;61314;53.444;9.902;2023-08-24T12:59:53;4.20;;;2.77;;
3997;SDS011;61314;53.444;9.902;2023-08-24T13:02:20;9.70;;;2.73;;
3997;SDS011;61314;53.444;9.902;2023-08-24T13:05:02;6.53;;;2.83;;
3997;SDS011;61314;53.444;9.902;2023-08-24T13:07:30;5.60;;;2.70;;
3997;SDS011;61314;53.444;9.902;2023-08-24T13:09:57;2.77;;;2.13;;
3997;SDS011;61314;53.444;9.902;2023-08-24T13:12:24;6.77;;;2.60;;
3997;SDS011;61314;53.444;9.902;2023-08-24T13:14:52;5.10;;;2.60;;
3997;SDS011;61314;53.444;9.902;2023-08-24T13:17:19;3.30;;;2.20;;
3997;SDS011;61314;53.444;9.902;2023-08-24T13:19:46;4.70;;;2.43;;
3997;SDS011;61314;53.444;9.902;2023-08-24T13:22:15;7.23;;;3.50;;
3997;SDS011;61314;53.444;9.902;2023-08-24T13:24:42;6.73;;;3.70;;
3997;SDS011;61314;53.444;9.902;2023-08-24T13:27:10;3.77;;;3.00;;
3997;SDS011;61314;53.444;9.902;2023-08-24T13:29:38;3.70;;;2.70;;
3997;SDS011;61314;53.444;9.902;2023-08-24T13:32:05;4.80;;;3.27;;
3997;SDS011;61314;53.444;9.902;2023-08-24T13:34:32;6.00;;;2.60;;
3997;SDS011;61314;53.444;9.902;2023-08-24T13:36:59;5.33;;;2.70;;
3997;SDS011;61314;53.444;9.902;2023-08-24T13:39:26;5.93;;;3.00;;
3997;SDS011;61314;53.444;9.902;2023-08-24T13:41:57;2.90;;;2.40;;
3997;SDS011;61314;53.444;9.902;2023-08-24T13:44:25;3.40;;;2.70;;
3997;SDS011;61314;53.444;9.902;2023-08-24T13:46:52;2.93;;;2.33;;
3997;SDS011;61314;53.444;9.902;2023-08-24T13:49:19;2.70;;;2.50;;
3997;SDS011;61314;53.444;9.902;2023-08-24T13:52:04;6.83;;;2.33;;
3997;SDS011;61314;53.444;9.902;2023-08-24T13:54:31;7.40;;;3.17;;
3997;SDS011;61314;53.444;9.902;2023-08-24T13:56:59;4.23;;;2.60;;
3997;SDS011;61314;53.444;9.902;2023-08-24T13:59:27;3.00;;;2.57;;
3997;SDS011;61314;53.444;9.902;2023-08-24T14:01:55;4.47;;;2.90;;
3997;SDS011;61314;53.444;9.902;2023-08-24T14:04:22;4.50;;;2.60;;
3997;SDS011;61314;53.444;9.902;2023-08-24T14:06:49;3.57;;;2.47;;
3997;SDS011;61314;53.444;9.902;2023-08-24T14:09:16;3.00;;;2.70;;
3997;SDS011;61314;53.444;9.902;2023-08-24T14:11:43;4.33;;;3.00;;
3997;SDS011;61314;53.444;9.902;2023-08-24T14:14:10;2.70;;;2.37;;
3997;SDS011;61314;53.444;9.902;2023-08-24T14:16:37;4.17;;;3.43;;
3997;SDS011;61314;53.444;9.902;2023-08-24T14:19:05;4.63;;;3.20;;
3997;SDS011;61314;53.444;9.902;2023-08-24T14:21:32;3.27;;;2.03;;
3997;SDS011;61314;53.444;9.902;2023-08-24T14:24:09;2.53;;;2.33;;
3997;SDS011;61314;53.444;9.902;2023-08-24T14:26:36;4.97;;;2.30;;
3997;SDS011;61314;53.444;9.902;2023-08-24T14:29:05;4.83;;;2.27;;
3997;SDS011;61314;53.444;9.902;2023-08-24T14:31:32;5.40;;;2.43;;
3997;SDS011;61314;53.444;9.902;2023-08-24T14:33:59;3.07;;;2.37;;
3997;SDS011;61314;53.444;9.902;2023-08-24T14:36:27;4.13;;;2.97;;
3997;SDS011;61314;53.444;9.902;2023-08-24T14:38:55;3.43;;;2.53;;
3997;SDS011;61314;53.444;9.902;2023-08-24T14:41:22;4.90;;;2.63;;
3997;SDS011;61314;53.444;9.902;2023-08-24T14:43:49;3.43;;;3.10;;
3997;SDS011;61314;53.444;9.902;2023-08-24T14:46:16;5.23;;;2.67;;
3997;SDS011;61314;53.444;9.902;2023-08-24T14:48:43;7.30;;;2.43;;
3997;SDS011;61314;53.444;9.902;2023-08-24T14:51:10;2.63;;;2.43;;
3997;SDS011;61314;53.444;9.902;2023-08-24T14:53:37;4.43;;;2.77;;
3997;SDS011;61314;53.444;9.902;2023-08-24T14:56:04;4.07;;;2.33;;
3997;SDS011;61314;53.444;9.902;2023-08-24T14:58:31;3.10;;;2.17;;
3997;SDS011;61314;53.444;9.902;2023-08-24T15:00:59;3.97;;;2.67;;
3997;SDS011;61314;53.444;9.902;2023-08-24T15:03:26;7.50;;;3.33;;
3997;SDS011;61314;53.444;9.902;2023-08-24T15:05:57;6.33;;;2.77;;
3997;SDS011;61314;53.444;9.902;2023-08-24T15:08:24;6.40;;;2.40;;
3997;SDS011;61314;53.444;9.902;2023-08-24T15:10:53;2.40;;;1.90;;
3997;SDS011;61314;53.444;9.902;2023-08-24T15:13:21;3.37;;;3.07;;
3997;SDS011;61314;53.444;9.902;2023-08-24T15:15:48;5.67;;;2.27;;
3997;SDS011;61314;53.444;9.902;2023-08-24T15:18:15;17.77;;;3.50;;